EZY83VN EGGP-LSGG
Flight info
| Callsign | EZY83VN |
|---|---|
| Flight time | 1h 32m |
| Altitude | 35000 |
| Route | NANTI L8 STAFA P18 TELBA L151 MID UL612 BOGNA/N0410F310 UL612 VEULE DCT PEKIM DCT PILUL/N0382F270 DCT PIMUP DCT PIXIS DCT PIBAT/N0358F230 DCT LUSAR |
| Aircraft | A320/M-SDE2E3FGHIJ1RWXYZ/LB1 |
Departure
| Time | 2026-05-06 13:08 |
|---|---|
| Airport | Liverpool John Lennon Airport (EGGP) |
Arrival
| Time | 2026-05-06 14:41 |
|---|---|
| Airport | Geneva International Airport (LSGG) |
| Time | Latitude | Longitude | Altitude | Speed | Heading |
|---|---|---|---|---|---|
| 2026-05-06 12:34 | 53.33661 | -2.85586 | 86 ft | 0 kts | 356° |
| 2026-05-06 12:58 | 53.33656 | -2.85586 | 86 ft | 4 kts | 354° |
| 2026-05-06 12:58 | 53.33635 | -2.85580 | 87 ft | 3 kts | 355° |
| 2026-05-06 12:58 | 53.33615 | -2.85571 | 86 ft | 4 kts | 291° |
| 2026-05-06 12:59 | 53.33613 | -2.85531 | 85 ft | 4 kts | 265° |
| 2026-05-06 12:59 | 53.33614 | -2.85512 | 88 ft | 0 kts | 265° |
| 2026-05-06 13:02 | 53.33614 | -2.85513 | 85 ft | 1 kts | 265° |
| 2026-05-06 13:02 | 53.33613 | -2.85543 | 85 ft | 4 kts | 266° |
| 2026-05-06 13:03 | 53.33610 | -2.85615 | 89 ft | 8 kts | 265° |
| 2026-05-06 13:03 | 53.33604 | -2.85728 | 85 ft | 11 kts | 265° |
| 2026-05-06 13:03 | 53.33598 | -2.85857 | 89 ft | 11 kts | 265° |
| 2026-05-06 13:03 | 53.33578 | -2.85938 | 89 ft | 6 kts | 198° |
| 2026-05-06 13:04 | 53.33528 | -2.85935 | 85 ft | 9 kts | 175° |
| 2026-05-06 13:04 | 53.33485 | -2.85980 | 89 ft | 8 kts | 254° |
| 2026-05-06 13:04 | 53.33477 | -2.86081 | 84 ft | 9 kts | 266° |
| 2026-05-06 13:04 | 53.33472 | -2.86202 | 84 ft | 11 kts | 266° |
| 2026-05-06 13:05 | 53.33466 | -2.86336 | 87 ft | 13 kts | 265° |
| 2026-05-06 13:05 | 53.33458 | -2.86508 | 82 ft | 18 kts | 265° |
| 2026-05-06 13:05 | 53.33434 | -2.86688 | 67 ft | 16 kts | 232° |
| 2026-05-06 13:05 | 53.33347 | -2.86725 | 77 ft | 14 kts | 159° |
| 2026-05-06 13:06 | 53.33292 | -2.86651 | 68 ft | 7 kts | 125° |
| 2026-05-06 13:06 | 53.33289 | -2.86593 | 70 ft | 0 kts | 86° |
| 2026-05-06 13:07 | 53.33292 | -2.86528 | 75 ft | 32 kts | 85° |
| 2026-05-06 13:08 | 53.33331 | -2.85687 | 81 ft | 108 kts | 86° |
| 2026-05-06 13:08 | 53.33401 | -2.84110 | 203 ft | 153 kts | 88° |
| 2026-05-06 13:08 | 53.33451 | -2.82940 | 695 ft | 153 kts | 86° |
| 2026-05-06 13:08 | 53.33543 | -2.81126 | 1407 ft | 161 kts | 84° |
| 2026-05-06 13:09 | 53.33573 | -2.79167 | 1884 ft | 177 kts | 102° |
| 2026-05-06 13:09 | 53.32916 | -2.77379 | 2414 ft | 190 kts | 136° |
| 2026-05-06 13:09 | 53.31827 | -2.76013 | 2872 ft | 205 kts | 145° |
| 2026-05-06 13:09 | 53.30573 | -2.74710 | 3379 ft | 216 kts | 148° |
| 2026-05-06 13:10 | 53.29257 | -2.73442 | 3964 ft | 226 kts | 148° |
| 2026-05-06 13:10 | 53.27825 | -2.72058 | 4345 ft | 250 kts | 148° |
| 2026-05-06 13:10 | 53.26281 | -2.70526 | 4986 ft | 263 kts | 147° |
| 2026-05-06 13:10 | 53.24697 | -2.68914 | 5802 ft | 270 kts | 147° |
| 2026-05-06 13:11 | 53.23005 | -2.67459 | 6596 ft | 278 kts | 157° |
| 2026-05-06 13:11 | 53.21191 | -2.66262 | 7392 ft | 283 kts | 159° |
| 2026-05-06 13:11 | 53.19338 | -2.65080 | 8218 ft | 287 kts | 159° |
| 2026-05-06 13:11 | 53.17455 | -2.63895 | 9050 ft | 292 kts | 160° |
| 2026-05-06 13:12 | 53.15542 | -2.62691 | 9880 ft | 296 kts | 160° |
| 2026-05-06 13:12 | 53.13585 | -2.61454 | 10438 ft | 310 kts | 160° |
| 2026-05-06 13:12 | 53.11495 | -2.60136 | 10702 ft | 332 kts | 160° |
| 2026-05-06 13:12 | 53.09301 | -2.58755 | 11281 ft | 341 kts | 160° |
| 2026-05-06 13:13 | 53.07072 | -2.57349 | 12014 ft | 345 kts | 160° |
| 2026-05-06 13:13 | 53.04814 | -2.55921 | 12779 ft | 349 kts | 160° |
| 2026-05-06 13:13 | 53.02530 | -2.54476 | 13527 ft | 353 kts | 160° |
| 2026-05-06 13:13 | 53.00223 | -2.53016 | 14211 ft | 357 kts | 160° |
| 2026-05-06 13:14 | 52.97891 | -2.51546 | 14829 ft | 360 kts | 160° |
| 2026-05-06 13:14 | 52.95538 | -2.50059 | 15461 ft | 364 kts | 160° |
| 2026-05-06 13:14 | 52.93162 | -2.48554 | 16106 ft | 367 kts | 160° |
| 2026-05-06 13:14 | 52.90769 | -2.47043 | 16746 ft | 370 kts | 161° |
| 2026-05-06 13:15 | 52.88353 | -2.45523 | 17378 ft | 373 kts | 161° |
| 2026-05-06 13:15 | 52.85917 | -2.43997 | 18008 ft | 376 kts | 161° |
| 2026-05-06 13:15 | 52.83459 | -2.42462 | 18580 ft | 379 kts | 161° |
| 2026-05-06 13:15 | 52.80980 | -2.40916 | 19135 ft | 382 kts | 161° |
| 2026-05-06 13:16 | 52.78486 | -2.39363 | 19677 ft | 385 kts | 161° |
| 2026-05-06 13:16 | 52.75973 | -2.37801 | 20225 ft | 387 kts | 161° |
| 2026-05-06 13:16 | 52.73446 | -2.36231 | 20752 ft | 390 kts | 161° |
| 2026-05-06 13:16 | 52.70900 | -2.34646 | 21305 ft | 392 kts | 161° |
| 2026-05-06 13:17 | 52.68343 | -2.33054 | 21823 ft | 394 kts | 161° |
| 2026-05-06 13:17 | 52.65842 | -2.31153 | 22318 ft | 399 kts | 152° |
| 2026-05-06 13:17 | 52.63504 | -2.28652 | 22808 ft | 402 kts | 148° |
| 2026-05-06 13:17 | 52.61174 | -2.26081 | 23312 ft | 405 kts | 148° |
| 2026-05-06 13:18 | 52.58823 | -2.23499 | 23767 ft | 407 kts | 148° |
| 2026-05-06 13:18 | 52.56456 | -2.20910 | 24169 ft | 410 kts | 148° |
| 2026-05-06 13:18 | 52.54074 | -2.18310 | 24567 ft | 412 kts | 148° |
| 2026-05-06 13:18 | 52.51681 | -2.15702 | 24966 ft | 414 kts | 148° |
| 2026-05-06 13:19 | 52.49272 | -2.13085 | 25354 ft | 416 kts | 148° |
| 2026-05-06 13:19 | 52.46851 | -2.10459 | 25750 ft | 418 kts | 148° |
| 2026-05-06 13:19 | 52.44420 | -2.07820 | 26136 ft | 420 kts | 148° |
| 2026-05-06 13:19 | 52.41977 | -2.05168 | 26517 ft | 422 kts | 149° |
| 2026-05-06 13:20 | 52.39522 | -2.02505 | 26879 ft | 425 kts | 149° |
| 2026-05-06 13:20 | 52.37052 | -1.99829 | 27230 ft | 427 kts | 149° |
| 2026-05-06 13:20 | 52.34569 | -1.97144 | 27598 ft | 429 kts | 149° |
| 2026-05-06 13:20 | 52.32072 | -1.94457 | 27946 ft | 431 kts | 149° |
| 2026-05-06 13:21 | 52.29564 | -1.91765 | 28304 ft | 433 kts | 149° |
| 2026-05-06 13:21 | 52.27040 | -1.89060 | 28654 ft | 435 kts | 149° |
| 2026-05-06 13:21 | 52.24506 | -1.86342 | 28979 ft | 437 kts | 149° |
| 2026-05-06 13:21 | 52.21962 | -1.83612 | 29336 ft | 439 kts | 149° |
| 2026-05-06 13:22 | 52.19407 | -1.80870 | 29669 ft | 441 kts | 149° |
| 2026-05-06 13:22 | 52.16838 | -1.78117 | 29994 ft | 443 kts | 149° |
| 2026-05-06 13:22 | 52.14256 | -1.75355 | 30275 ft | 445 kts | 149° |
| 2026-05-06 13:22 | 52.11665 | -1.72589 | 30530 ft | 447 kts | 149° |
| 2026-05-06 13:23 | 52.09062 | -1.69816 | 30791 ft | 448 kts | 149° |
| 2026-05-06 13:23 | 52.06445 | -1.67039 | 31046 ft | 450 kts | 149° |
| 2026-05-06 13:23 | 52.03819 | -1.64254 | 31312 ft | 451 kts | 149° |
| 2026-05-06 13:23 | 52.01191 | -1.61459 | 31659 ft | 450 kts | 149° |
| 2026-05-06 13:24 | 51.98577 | -1.58685 | 32029 ft | 449 kts | 149° |
| 2026-05-06 13:24 | 51.95961 | -1.55917 | 32375 ft | 449 kts | 149° |
| 2026-05-06 13:24 | 51.93347 | -1.53158 | 32732 ft | 448 kts | 149° |
| 2026-05-06 13:24 | 51.90737 | -1.50406 | 33078 ft | 447 kts | 149° |
| 2026-05-06 13:25 | 51.88132 | -1.47667 | 33421 ft | 447 kts | 149° |
| 2026-05-06 13:25 | 51.85526 | -1.44934 | 33777 ft | 446 kts | 149° |
| 2026-05-06 13:25 | 51.82925 | -1.42209 | 34111 ft | 445 kts | 149° |
| 2026-05-06 13:25 | 51.80328 | -1.39490 | 34395 ft | 445 kts | 149° |
| 2026-05-06 13:26 | 51.77732 | -1.36772 | 34619 ft | 445 kts | 149° |
| 2026-05-06 13:26 | 51.75131 | -1.34050 | 34836 ft | 446 kts | 149° |
| 2026-05-06 13:26 | 51.72522 | -1.31329 | 34975 ft | 446 kts | 149° |
| 2026-05-06 13:27 | 51.67375 | -1.25955 | 35002 ft | 438 kts | 149° |
| 2026-05-06 13:27 | 51.62266 | -1.20633 | 35002 ft | 437 kts | 149° |
| 2026-05-06 13:28 | 51.57155 | -1.15336 | 35003 ft | 437 kts | 149° |
| 2026-05-06 13:28 | 51.52035 | -1.10043 | 35003 ft | 438 kts | 149° |
| 2026-05-06 13:29 | 51.46910 | -1.04771 | 34999 ft | 438 kts | 149° |
| 2026-05-06 13:29 | 51.41785 | -0.99499 | 34999 ft | 437 kts | 149° |
| 2026-05-06 13:30 | 51.36663 | -0.94247 | 34993 ft | 437 kts | 149° |
| 2026-05-06 13:30 | 51.31541 | -0.89004 | 34995 ft | 437 kts | 149° |
| 2026-05-06 13:31 | 51.26414 | -0.83774 | 35006 ft | 437 kts | 149° |
| 2026-05-06 13:31 | 51.21282 | -0.78562 | 35010 ft | 437 kts | 149° |
| 2026-05-06 13:32 | 51.16145 | -0.73361 | 34997 ft | 437 kts | 149° |
| 2026-05-06 13:32 | 51.11013 | -0.68171 | 34992 ft | 437 kts | 149° |
| 2026-05-06 13:33 | 51.05879 | -0.63004 | 34985 ft | 437 kts | 149° |
| 2026-05-06 13:33 | 51.00785 | -0.57711 | 34975 ft | 437 kts | 147° |
| 2026-05-06 13:34 | 50.95763 | -0.52270 | 34988 ft | 437 kts | 147° |
| 2026-05-06 13:34 | 50.90734 | -0.46848 | 34979 ft | 437 kts | 147° |
| 2026-05-06 13:35 | 50.85689 | -0.41485 | 34970 ft | 437 kts | 147° |
| 2026-05-06 13:35 | 50.80633 | -0.36162 | 34962 ft | 437 kts | 148° |
| 2026-05-06 13:36 | 50.75577 | -0.30835 | 34961 ft | 437 kts | 148° |
| 2026-05-06 13:36 | 50.70512 | -0.25504 | 34963 ft | 438 kts | 147° |
| 2026-05-06 13:37 | 50.65442 | -0.20170 | 34964 ft | 438 kts | 148° |
| 2026-05-06 13:37 | 50.60370 | -0.14856 | 34975 ft | 438 kts | 147° |
| 2026-05-06 13:38 | 50.55295 | -0.09552 | 34978 ft | 438 kts | 147° |
| 2026-05-06 13:38 | 50.50223 | -0.04269 | 34982 ft | 437 kts | 147° |
| 2026-05-06 13:39 | 50.45152 | 0.00992 | 34982 ft | 437 kts | 147° |
| 2026-05-06 13:39 | 50.40089 | 0.06234 | 34980 ft | 436 kts | 147° |
| 2026-05-06 13:40 | 50.35027 | 0.11461 | 34984 ft | 435 kts | 147° |
| 2026-05-06 13:40 | 50.29977 | 0.16674 | 34986 ft | 435 kts | 147° |
| 2026-05-06 13:41 | 50.24923 | 0.21881 | 34985 ft | 435 kts | 147° |
| 2026-05-06 13:41 | 50.19870 | 0.27063 | 34983 ft | 434 kts | 147° |
| 2026-05-06 13:42 | 50.14820 | 0.32242 | 34978 ft | 434 kts | 147° |
| 2026-05-06 13:42 | 50.09777 | 0.37431 | 34975 ft | 434 kts | 147° |
| 2026-05-06 13:43 | 50.04731 | 0.42604 | 34976 ft | 434 kts | 147° |
| 2026-05-06 13:43 | 49.99680 | 0.47755 | 34972 ft | 434 kts | 147° |
| 2026-05-06 13:44 | 49.94630 | 0.52894 | 34977 ft | 434 kts | 147° |
| 2026-05-06 13:44 | 49.89584 | 0.58009 | 34975 ft | 433 kts | 147° |
| 2026-05-06 13:45 | 49.84680 | 0.63421 | 34967 ft | 433 kts | 137° |
| 2026-05-06 13:45 | 49.78110 | 0.73049 | 34952 ft | 434 kts | 137° |
| 2026-05-06 13:46 | 49.73700 | 0.79425 | 34944 ft | 434 kts | 137° |
| 2026-05-06 13:46 | 49.69283 | 0.85804 | 34946 ft | 435 kts | 137° |
| 2026-05-06 13:47 | 49.64869 | 0.92187 | 34959 ft | 434 kts | 137° |
| 2026-05-06 13:47 | 49.60457 | 0.98546 | 34967 ft | 434 kts | 137° |
| 2026-05-06 13:48 | 49.56047 | 1.04877 | 34969 ft | 433 kts | 137° |
| 2026-05-06 13:48 | 49.51637 | 1.11189 | 34968 ft | 433 kts | 137° |
| 2026-05-06 13:49 | 49.47227 | 1.17494 | 34974 ft | 432 kts | 137° |
| 2026-05-06 13:49 | 49.43562 | 1.22712 | 34973 ft | 432 kts | 137° |
| 2026-05-06 13:50 | 49.39146 | 1.28980 | 34962 ft | 432 kts | 137° |
| 2026-05-06 13:50 | 49.34733 | 1.35244 | 34961 ft | 432 kts | 137° |
| 2026-05-06 13:51 | 49.30324 | 1.41488 | 34960 ft | 432 kts | 138° |
| 2026-05-06 13:51 | 49.25913 | 1.47725 | 34948 ft | 431 kts | 137° |
| 2026-05-06 13:52 | 49.21498 | 1.53948 | 34923 ft | 432 kts | 137° |
| 2026-05-06 13:52 | 49.17078 | 1.60154 | 34916 ft | 431 kts | 137° |
| 2026-05-06 13:53 | 49.12654 | 1.66345 | 34915 ft | 431 kts | 138° |
| 2026-05-06 13:53 | 49.08226 | 1.72528 | 34917 ft | 431 kts | 138° |
| 2026-05-06 13:54 | 49.03798 | 1.78711 | 34907 ft | 431 kts | 139° |
| 2026-05-06 13:54 | 48.99368 | 1.84865 | 34918 ft | 431 kts | 139° |
| 2026-05-06 13:55 | 48.94935 | 1.90995 | 34932 ft | 430 kts | 138° |
| 2026-05-06 13:55 | 48.90510 | 1.97119 | 34903 ft | 430 kts | 138° |
| 2026-05-06 13:56 | 48.86084 | 2.03238 | 34912 ft | 430 kts | 139° |
| 2026-05-06 13:56 | 48.81655 | 2.09336 | 34913 ft | 430 kts | 139° |
| 2026-05-06 13:57 | 48.77225 | 2.15414 | 34917 ft | 430 kts | 139° |
| 2026-05-06 13:57 | 48.72791 | 2.21487 | 34914 ft | 429 kts | 139° |
| 2026-05-06 13:58 | 48.68371 | 2.27535 | 34910 ft | 428 kts | 139° |
| 2026-05-06 13:58 | 48.63952 | 2.33559 | 34915 ft | 427 kts | 139° |
| 2026-05-06 13:59 | 48.59531 | 2.39565 | 34916 ft | 427 kts | 139° |
| 2026-05-06 13:59 | 48.55113 | 2.45557 | 34910 ft | 427 kts | 139° |
| 2026-05-06 14:00 | 48.50689 | 2.51535 | 34901 ft | 427 kts | 140° |
| 2026-05-06 14:00 | 48.46265 | 2.57500 | 34902 ft | 426 kts | 139° |
| 2026-05-06 14:01 | 48.41847 | 2.63444 | 34912 ft | 425 kts | 139° |
| 2026-05-06 14:01 | 48.37461 | 2.69331 | 34910 ft | 425 kts | 139° |
| 2026-05-06 14:02 | 48.33013 | 2.75286 | 34913 ft | 425 kts | 139° |
| 2026-05-06 14:02 | 48.28623 | 2.81148 | 34899 ft | 425 kts | 139° |
| 2026-05-06 14:03 | 48.24066 | 2.86894 | 34911 ft | 425 kts | 143° |
| 2026-05-06 14:03 | 48.19382 | 2.92219 | 34909 ft | 425 kts | 144° |
| 2026-05-06 14:04 | 48.14645 | 2.97525 | 34896 ft | 426 kts | 143° |
| 2026-05-06 14:04 | 48.09933 | 3.02905 | 34893 ft | 427 kts | 144° |
| 2026-05-06 14:05 | 48.04730 | 3.07101 | 34896 ft | 425 kts | 158° |
| 2026-05-06 14:05 | 47.99275 | 3.10536 | 34910 ft | 426 kts | 158° |
| 2026-05-06 14:06 | 47.93802 | 3.13969 | 34908 ft | 427 kts | 158° |
| 2026-05-06 14:06 | 47.88329 | 3.17397 | 34905 ft | 427 kts | 158° |
| 2026-05-06 14:07 | 47.82860 | 3.20832 | 34907 ft | 426 kts | 158° |
| 2026-05-06 14:07 | 47.77390 | 3.24244 | 34907 ft | 426 kts | 159° |
| 2026-05-06 14:08 | 47.71915 | 3.27644 | 34912 ft | 427 kts | 158° |
| 2026-05-06 14:08 | 47.66436 | 3.31043 | 34911 ft | 427 kts | 159° |
| 2026-05-06 14:09 | 47.60967 | 3.34447 | 34900 ft | 426 kts | 158° |
| 2026-05-06 14:09 | 47.55506 | 3.37833 | 34907 ft | 425 kts | 158° |
| 2026-05-06 14:10 | 47.50041 | 3.41211 | 34896 ft | 425 kts | 159° |
| 2026-05-06 14:10 | 47.44581 | 3.44577 | 34897 ft | 425 kts | 159° |
| 2026-05-06 14:11 | 47.39114 | 3.47940 | 34891 ft | 425 kts | 159° |
| 2026-05-06 14:11 | 47.33647 | 3.51291 | 34888 ft | 425 kts | 159° |
| 2026-05-06 14:12 | 47.28178 | 3.54640 | 34888 ft | 426 kts | 159° |
| 2026-05-06 14:12 | 47.22710 | 3.57983 | 34887 ft | 426 kts | 159° |
| 2026-05-06 14:13 | 47.17234 | 3.61320 | 34886 ft | 426 kts | 159° |
| 2026-05-06 14:13 | 47.11760 | 3.64658 | 34878 ft | 426 kts | 159° |
| 2026-05-06 14:14 | 47.06284 | 3.67987 | 34876 ft | 426 kts | 159° |
| 2026-05-06 14:14 | 47.00801 | 3.71294 | 34878 ft | 426 kts | 159° |
| 2026-05-06 14:15 | 46.95740 | 3.75786 | 34873 ft | 430 kts | 139° |
| 2026-05-06 14:15 | 46.93717 | 3.79007 | 34875 ft | 432 kts | 128° |
| 2026-05-06 14:15 | 46.92139 | 3.82755 | 34872 ft | 434 kts | 117° |
| 2026-05-06 14:16 | 46.89919 | 3.90996 | 34867 ft | 436 kts | 113° |
| 2026-05-06 14:16 | 46.87725 | 3.99265 | 34867 ft | 437 kts | 113° |
| 2026-05-06 14:17 | 46.85510 | 4.07537 | 34855 ft | 438 kts | 114° |
| 2026-05-06 14:17 | 46.83297 | 4.15816 | 34860 ft | 438 kts | 114° |
| 2026-05-06 14:18 | 46.81076 | 4.24108 | 34858 ft | 439 kts | 112° |
| 2026-05-06 14:18 | 46.79601 | 4.32778 | 34862 ft | 441 kts | 104° |
| 2026-05-06 14:19 | 46.78342 | 4.41489 | 34868 ft | 442 kts | 104° |
| 2026-05-06 14:19 | 46.77055 | 4.50258 | 34854 ft | 443 kts | 104° |
| 2026-05-06 14:20 | 46.75752 | 4.59085 | 34846 ft | 447 kts | 104° |
| 2026-05-06 14:20 | 46.74432 | 4.67957 | 34847 ft | 449 kts | 104° |
| 2026-05-06 14:21 | 46.73103 | 4.76862 | 34860 ft | 450 kts | 104° |
| 2026-05-06 14:21 | 46.71769 | 4.85798 | 34863 ft | 451 kts | 104° |
| 2026-05-06 14:22 | 46.70432 | 4.94733 | 34838 ft | 452 kts | 105° |
| 2026-05-06 14:22 | 46.69758 | 4.99207 | 34366 ft | 450 kts | 105° |
| 2026-05-06 14:22 | 46.69085 | 5.03630 | 33911 ft | 445 kts | 105° |
| 2026-05-06 14:23 | 46.68412 | 5.08015 | 33371 ft | 441 kts | 105° |
| 2026-05-06 14:23 | 46.67743 | 5.12352 | 32789 ft | 438 kts | 105° |
| 2026-05-06 14:23 | 46.67076 | 5.16676 | 32133 ft | 437 kts | 104° |
| 2026-05-06 14:23 | 46.66413 | 5.20990 | 31503 ft | 436 kts | 104° |
| 2026-05-06 14:24 | 46.65760 | 5.25297 | 30877 ft | 435 kts | 104° |
| 2026-05-06 14:24 | 46.65116 | 5.29584 | 30185 ft | 435 kts | 104° |
| 2026-05-06 14:24 | 46.64470 | 5.33892 | 29357 ft | 436 kts | 104° |
| 2026-05-06 14:24 | 46.63821 | 5.38209 | 28507 ft | 437 kts | 104° |
| 2026-05-06 14:25 | 46.63169 | 5.42524 | 27682 ft | 437 kts | 104° |
| 2026-05-06 14:25 | 46.62514 | 5.46845 | 26873 ft | 437 kts | 104° |
| 2026-05-06 14:25 | 46.61855 | 5.51159 | 26099 ft | 436 kts | 104° |
| 2026-05-06 14:25 | 46.61188 | 5.55456 | 25339 ft | 435 kts | 104° |
| 2026-05-06 14:26 | 46.60515 | 5.59736 | 24596 ft | 433 kts | 105° |
| 2026-05-06 14:26 | 46.59842 | 5.64000 | 23876 ft | 432 kts | 104° |
| 2026-05-06 14:26 | 46.59172 | 5.68245 | 23111 ft | 430 kts | 104° |
| 2026-05-06 14:26 | 46.58505 | 5.72468 | 22289 ft | 429 kts | 104° |
| 2026-05-06 14:27 | 46.57803 | 5.76695 | 21478 ft | 429 kts | 108° |
| 2026-05-06 14:27 | 46.56558 | 5.80601 | 20704 ft | 426 kts | 124° |
| 2026-05-06 14:27 | 46.54633 | 5.83820 | 19930 ft | 422 kts | 141° |
| 2026-05-06 14:27 | 46.52275 | 5.86324 | 19182 ft | 419 kts | 146° |
| 2026-05-06 14:28 | 46.49890 | 5.88721 | 18435 ft | 413 kts | 147° |
| 2026-05-06 14:28 | 46.47563 | 5.91046 | 17664 ft | 400 kts | 147° |
| 2026-05-06 14:28 | 46.45303 | 5.93302 | 16863 ft | 389 kts | 147° |
| 2026-05-06 14:28 | 46.43100 | 5.95505 | 16077 ft | 380 kts | 148° |
| 2026-05-06 14:29 | 46.40942 | 5.97661 | 15314 ft | 373 kts | 148° |
| 2026-05-06 14:29 | 46.38845 | 5.99804 | 14578 ft | 366 kts | 143° |
| 2026-05-06 14:29 | 46.37258 | 6.02641 | 13850 ft | 366 kts | 117° |
| 2026-05-06 14:29 | 46.36683 | 6.06189 | 13059 ft | 364 kts | 90° |
| 2026-05-06 14:30 | 46.37249 | 6.09699 | 12387 ft | 357 kts | 63° |
| 2026-05-06 14:30 | 46.38734 | 6.12505 | 11738 ft | 348 kts | 45° |
| 2026-05-06 14:30 | 46.40420 | 6.14966 | 11106 ft | 341 kts | 43° |
| 2026-05-06 14:30 | 46.42111 | 6.17340 | 10478 ft | 336 kts | 42° |
| 2026-05-06 14:31 | 46.43763 | 6.19649 | 10087 ft | 324 kts | 42° |
| 2026-05-06 14:31 | 46.45341 | 6.21886 | 9721 ft | 312 kts | 43° |
| 2026-05-06 14:31 | 46.46851 | 6.24068 | 9318 ft | 302 kts | 43° |
| 2026-05-06 14:31 | 46.48311 | 6.26208 | 8924 ft | 294 kts | 43° |
| 2026-05-06 14:32 | 46.49722 | 6.28285 | 8699 ft | 282 kts | 43° |
| 2026-05-06 14:32 | 46.51062 | 6.30267 | 8565 ft | 271 kts | 44° |
| 2026-05-06 14:32 | 46.52365 | 6.32213 | 8435 ft | 268 kts | 44° |
| 2026-05-06 14:32 | 46.53372 | 6.34464 | 8300 ft | 269 kts | 72° |
| 2026-05-06 14:33 | 46.53539 | 6.37130 | 8170 ft | 265 kts | 103° |
| 2026-05-06 14:33 | 46.52862 | 6.39517 | 8050 ft | 251 kts | 128° |
| 2026-05-06 14:33 | 46.51714 | 6.41406 | 7690 ft | 247 kts | 147° |
| 2026-05-06 14:33 | 46.50282 | 6.42643 | 7594 ft | 236 kts | 164° |
| 2026-05-06 14:34 | 46.49253 | 6.43101 | 7525 ft | 232 kts | 174° |
| 2026-05-06 14:34 | 46.47672 | 6.43252 | 7378 ft | 226 kts | 189° |
| 2026-05-06 14:34 | 46.46152 | 6.42779 | 7175 ft | 222 kts | 205° |
| 2026-05-06 14:34 | 46.44801 | 6.41746 | 6919 ft | 219 kts | 219° |
| 2026-05-06 14:35 | 46.43687 | 6.40268 | 6664 ft | 216 kts | 228° |
| 2026-05-06 14:35 | 46.42646 | 6.38718 | 6390 ft | 214 kts | 227° |
| 2026-05-06 14:35 | 46.41606 | 6.37172 | 6091 ft | 213 kts | 229° |
| 2026-05-06 14:35 | 46.40575 | 6.35643 | 5805 ft | 211 kts | 229° |
| 2026-05-06 14:36 | 46.39553 | 6.34129 | 5518 ft | 209 kts | 228° |
| 2026-05-06 14:36 | 46.38546 | 6.32636 | 5233 ft | 204 kts | 226° |
| 2026-05-06 14:36 | 46.37568 | 6.31188 | 4961 ft | 199 kts | 226° |
| 2026-05-06 14:36 | 46.36615 | 6.29778 | 4720 ft | 194 kts | 226° |
| 2026-05-06 14:37 | 46.35680 | 6.28396 | 4438 ft | 189 kts | 226° |
| 2026-05-06 14:37 | 46.34774 | 6.27057 | 4183 ft | 183 kts | 226° |
| 2026-05-06 14:37 | 46.33897 | 6.25761 | 3928 ft | 178 kts | 226° |
| 2026-05-06 14:37 | 46.33043 | 6.24501 | 3701 ft | 173 kts | 225° |
| 2026-05-06 14:38 | 46.32216 | 6.23280 | 3477 ft | 167 kts | 226° |
| 2026-05-06 14:38 | 46.31411 | 6.22092 | 3258 ft | 163 kts | 225° |
| 2026-05-06 14:38 | 46.30624 | 6.20932 | 3035 ft | 160 kts | 225° |
| 2026-05-06 14:38 | 46.29861 | 6.19806 | 2816 ft | 157 kts | 225° |
| 2026-05-06 14:39 | 46.29107 | 6.18696 | 2567 ft | 151 kts | 226° |
| 2026-05-06 14:39 | 46.28395 | 6.17648 | 2344 ft | 143 kts | 224° |
| 2026-05-06 14:39 | 46.27702 | 6.16616 | 2158 ft | 142 kts | 224° |
| 2026-05-06 14:39 | 46.26995 | 6.15617 | 2005 ft | 141 kts | 224° |
| 2026-05-06 14:40 | 46.26319 | 6.14590 | 1794 ft | 140 kts | 224° |
| 2026-05-06 14:40 | 46.25634 | 6.13572 | 1616 ft | 140 kts | 223° |
| 2026-05-06 14:40 | 46.24946 | 6.12571 | 1410 ft | 140 kts | 223° |
| 2026-05-06 14:40 | 46.24302 | 6.11624 | 1373 ft | 119 kts | 226° |
| 2026-05-06 14:41 | 46.23843 | 6.10947 | 1380 ft | 55 kts | 225° |
| 2026-05-06 14:41 | 46.23679 | 6.10766 | 1380 ft | 25 kts | 203° |
| 2026-05-06 14:41 | 46.23534 | 6.10705 | 1386 ft | 14 kts | 194° |
| 2026-05-06 14:41 | 46.23477 | 6.10686 | 1387 ft | 7 kts | 193° |
| 2026-05-06 14:42 | 46.23433 | 6.10684 | 1400 ft | 6 kts | 165° |
| 2026-05-06 14:42 | 46.23401 | 6.10728 | 1398 ft | 8 kts | 131° |
| 2026-05-06 14:42 | 46.23360 | 6.10787 | 1396 ft | 8 kts | 135° |
| 2026-05-06 14:42 | 46.23354 | 6.10838 | 1395 ft | 4 kts | 65° |
| 2026-05-06 14:43 | 46.23371 | 6.10867 | 1397 ft | 3 kts | 48° |
| 2026-05-06 14:43 | 46.23415 | 6.10933 | 1393 ft | 10 kts | 44° |
| 2026-05-06 14:43 | 46.23460 | 6.10998 | 1399 ft | 9 kts | 45° |
| 2026-05-06 14:43 | 46.23500 | 6.11055 | 1398 ft | 7 kts | 45° |
| 2026-05-06 14:44 | 46.23524 | 6.11094 | 1397 ft | 3 kts | 61° |
| 2026-05-06 14:44 | 46.23520 | 6.11123 | 1395 ft | 5 kts | 116° |
| 2026-05-06 14:44 | 46.23496 | 6.11160 | 1397 ft | 4 kts | 136° |
| 2026-05-06 14:45 | 46.23474 | 6.11192 | 1397 ft | 0 kts | 135° |